createdAt,value
2023-06-18T00:01:36.339Z,19.67
2023-06-18T00:04:03.411Z,19.65
2023-06-18T00:06:31.177Z,19.61
2023-06-18T00:08:58.874Z,19.58
2023-06-18T00:11:25.671Z,19.55
2023-06-18T00:13:52.491Z,19.54
2023-06-18T00:16:19.216Z,19.55
2023-06-18T00:18:45.880Z,19.54
2023-06-18T00:21:12.922Z,19.53
2023-06-18T00:23:39.671Z,19.52
2023-06-18T00:26:06.450Z,19.50
2023-06-18T00:28:34.186Z,19.47
2023-06-18T00:31:02.150Z,19.45
2023-06-18T00:33:30.128Z,19.43
2023-06-18T00:35:59.719Z,19.44
2023-06-18T00:38:29.522Z,19.45
2023-06-18T00:40:56.242Z,19.47
2023-06-18T00:43:23.142Z,19.51
2023-06-18T00:45:50.846Z,19.54
2023-06-18T00:48:17.798Z,19.58
2023-06-18T00:50:45.463Z,19.61
2023-06-18T00:53:14.022Z,19.63
2023-06-18T00:55:42.015Z,19.64
2023-06-18T00:58:08.768Z,19.63
2023-06-18T01:00:37.267Z,19.62
2023-06-18T01:03:05.922Z,19.60
2023-06-18T01:05:34.356Z,19.57
2023-06-18T01:08:06.749Z,19.54
2023-06-18T01:10:39.470Z,19.52
2023-06-18T01:13:08.697Z,19.48
2023-06-18T01:15:36.405Z,19.43
2023-06-18T01:18:07.670Z,19.36
2023-06-18T01:20:45.188Z,19.27
2023-06-18T01:23:16.310Z,19.19
2023-06-18T01:25:44.419Z,19.11
2023-06-18T01:28:11.308Z,19.05
2023-06-18T01:30:40.144Z,18.99
2023-06-18T01:33:13.283Z,18.93
2023-06-18T01:35:40.393Z,18.90
2023-06-18T01:38:25.359Z,18.90
2023-06-18T01:40:55.607Z,18.88
2023-06-18T01:43:33.369Z,18.86
2023-06-18T01:46:05.644Z,18.84
2023-06-18T01:48:38.627Z,18.84
2023-06-18T01:51:05.489Z,18.84
2023-06-18T01:53:35.096Z,18.85
2023-06-18T01:56:02.503Z,18.87
2023-06-18T01:58:34.177Z,18.90
2023-06-18T02:01:01.553Z,18.94
2023-06-18T02:03:28.520Z,18.99
2023-06-18T02:05:55.557Z,19.02
2023-06-18T02:08:23.272Z,19.04
2023-06-18T02:10:50.673Z,19.07
2023-06-18T02:13:18.451Z,19.10
2023-06-18T02:15:46.341Z,19.14
2023-06-18T02:18:13.573Z,19.16
2023-06-18T02:20:40.731Z,19.20
2023-06-18T02:23:07.595Z,19.25
2023-06-18T02:25:34.605Z,19.30
2023-06-18T02:28:04.992Z,19.34
2023-06-18T02:30:31.674Z,19.38
2023-06-18T02:32:59.447Z,19.42
2023-06-18T02:35:26.861Z,19.45
2023-06-18T02:37:54.030Z,19.48
2023-06-18T02:40:21.544Z,19.49
2023-06-18T02:42:48.931Z,19.49
2023-06-18T02:45:16.971Z,19.51
2023-06-18T02:47:47.723Z,19.55
2023-06-18T02:50:15.634Z,19.62
2023-06-18T02:52:43.372Z,19.75
2023-06-18T02:55:10.936Z,19.93
2023-06-18T02:57:39.493Z,20.08
2023-06-18T03:00:11.751Z,20.42
2023-06-18T03:02:40.546Z,21.06
2023-06-18T03:05:09.239Z,21.56
2023-06-18T03:07:36.177Z,22.17
2023-06-18T03:10:03.553Z,22.87
2023-06-18T03:12:31.271Z,23.20
2023-06-18T03:14:58.959Z,23.37
2023-06-18T03:17:26.389Z,23.71
2023-06-18T03:19:53.434Z,24.26
2023-06-18T03:22:21.469Z,24.93
2023-06-18T03:24:49.737Z,25.58
2023-06-18T03:27:16.962Z,26.12
2023-06-18T03:29:44.638Z,26.73
2023-06-18T03:32:12.231Z,27.31
2023-06-18T03:34:42.705Z,27.64
2023-06-18T03:37:12.312Z,27.91
2023-06-18T03:39:39.889Z,28.26
2023-06-18T03:42:06.798Z,28.38
2023-06-18T03:44:33.730Z,28.49
2023-06-18T03:47:00.668Z,28.54
2023-06-18T03:49:27.555Z,28.49
2023-06-18T03:51:54.279Z,28.59
2023-06-18T03:54:24.930Z,28.90
2023-06-18T03:56:52.530Z,29.13
2023-06-18T03:59:20.010Z,29.21
2023-06-18T04:01:47.251Z,29.26
2023-06-18T04:04:13.921Z,29.20
2023-06-18T04:06:41.231Z,29.28
2023-06-18T04:09:09.249Z,29.45
2023-06-18T04:11:38.792Z,29.47
2023-06-18T04:14:05.781Z,29.31
2023-06-18T04:16:33.751Z,29.17
2023-06-18T04:19:01.012Z,29.11
2023-06-18T04:21:28.612Z,29.07
2023-06-18T04:23:55.822Z,29.17
2023-06-18T04:26:23.646Z,29.35
2023-06-18T04:28:51.217Z,29.61
2023-06-18T04:31:18.168Z,29.74
2023-06-18T04:33:45.685Z,29.89
2023-06-18T04:36:13.412Z,30.02
2023-06-18T04:38:42.028Z,30.23
2023-06-18T04:41:09.029Z,30.31
2023-06-18T04:43:35.997Z,30.48
2023-06-18T04:46:03.445Z,30.83
2023-06-18T04:48:31.903Z,30.98
2023-06-18T04:50:59.516Z,30.96
2023-06-18T04:53:26.803Z,30.98
2023-06-18T04:55:53.653Z,31.03
2023-06-18T04:58:21.202Z,31.06
2023-06-18T05:00:48.269Z,31.24
2023-06-18T05:03:15.133Z,31.43
2023-06-18T05:05:42.643Z,31.52
2023-06-18T05:08:09.488Z,31.41
2023-06-18T05:10:37.067Z,31.28
2023-06-18T05:13:04.233Z,31.37
2023-06-18T05:15:31.900Z,31.63
2023-06-18T05:17:59.577Z,31.67
2023-06-18T05:20:26.440Z,31.62
2023-06-18T05:22:53.807Z,31.79
2023-06-18T05:25:20.811Z,32.14
2023-06-18T05:27:47.683Z,32.30
2023-06-18T05:30:14.434Z,32.48
2023-06-18T05:32:41.464Z,32.80
2023-06-18T05:35:11.441Z,33.20
2023-06-18T05:37:44.377Z,33.33
2023-06-18T05:40:11.832Z,33.43
2023-06-18T05:42:41.510Z,33.67
2023-06-18T05:45:09.115Z,33.53
2023-06-18T05:47:36.525Z,33.27
2023-06-18T05:50:06.630Z,33.05
2023-06-18T05:52:33.919Z,32.81
2023-06-18T05:55:00.873Z,32.65
2023-06-18T05:57:28.095Z,32.58
2023-06-18T05:59:55.627Z,32.46
2023-06-18T06:02:22.484Z,32.46
2023-06-18T06:04:49.204Z,32.60
2023-06-18T06:07:16.036Z,32.81
2023-06-18T06:09:43.216Z,32.85
2023-06-18T06:12:11.367Z,32.80
2023-06-18T06:14:38.248Z,32.88
2023-06-18T06:17:05.629Z,33.16
2023-06-18T06:19:32.610Z,33.41
2023-06-18T06:21:59.671Z,33.51
2023-06-18T06:24:27.234Z,33.66
2023-06-18T06:26:53.969Z,33.96
2023-06-18T06:29:21.111Z,34.07
2023-06-18T06:31:49.646Z,33.99
2023-06-18T06:34:16.984Z,34.14
2023-06-18T06:36:43.973Z,34.27
2023-06-18T06:39:11.417Z,34.19
2023-06-18T06:41:38.300Z,34.13
2023-06-18T06:44:05.115Z,34.07
2023-06-18T06:46:46.033Z,33.94
2023-06-18T06:49:36.494Z,33.75
2023-06-18T06:52:26.101Z,33.50
2023-06-18T06:54:54.846Z,33.53
2023-06-18T06:57:22.111Z,33.86
2023-06-18T06:59:49.073Z,34.07
2023-06-18T07:02:16.553Z,34.12
2023-06-18T07:04:46.760Z,34.11
2023-06-18T07:07:14.136Z,34.02
2023-06-18T07:09:41.206Z,33.96
2023-06-18T07:12:08.344Z,33.85
2023-06-18T07:14:36.075Z,33.78
2023-06-18T07:17:03.039Z,33.85
2023-06-18T07:19:30.475Z,33.93
2023-06-18T07:21:57.260Z,34.09
2023-06-18T07:24:24.464Z,34.18
2023-06-18T07:26:51.516Z,34.27
2023-06-18T07:29:18.295Z,34.30
2023-06-18T07:31:45.251Z,34.09
2023-06-18T07:34:11.966Z,33.68
2023-06-18T07:36:38.744Z,33.53
2023-06-18T07:39:05.482Z,33.58
2023-06-18T07:41:32.136Z,33.51
2023-06-18T07:43:58.939Z,33.31
2023-06-18T07:46:26.248Z,33.27
2023-06-18T07:48:53.159Z,33.25
2023-06-18T07:51:20.517Z,33.15
2023-06-18T07:53:47.287Z,33.03
2023-06-18T07:56:14.217Z,33.05
2023-06-18T07:58:41.050Z,32.99
2023-06-18T08:01:07.754Z,32.76
2023-06-18T08:03:34.646Z,32.56
2023-06-18T08:06:01.502Z,32.50
2023-06-18T08:08:30.279Z,32.67
2023-06-18T08:10:57.441Z,32.97
2023-06-18T08:13:24.221Z,33.38
2023-06-18T08:15:51.069Z,33.63
2023-06-18T08:18:17.925Z,33.54
2023-06-18T08:20:44.842Z,33.47
2023-06-18T08:23:12.011Z,33.54
2023-06-18T08:25:38.963Z,33.52
2023-06-18T08:28:06.141Z,33.43
2023-06-18T08:30:33.028Z,33.30
2023-06-18T08:32:59.934Z,33.20
2023-06-18T08:35:26.962Z,33.15
2023-06-18T08:37:53.759Z,33.22
2023-06-18T08:40:21.984Z,33.22
2023-06-18T08:43:05.653Z,33.15
2023-06-18T08:45:34.175Z,33.28
2023-06-18T08:48:04.566Z,33.37
2023-06-18T08:50:33.789Z,33.39
2023-06-18T08:53:00.826Z,33.44
2023-06-18T08:55:27.749Z,33.59
2023-06-18T08:57:59.099Z,33.75
2023-06-18T09:00:25.881Z,34.00
2023-06-18T09:02:52.685Z,34.25
2023-06-18T09:05:19.719Z,34.61
2023-06-18T09:07:47.641Z,34.97
2023-06-18T09:10:14.715Z,35.12
2023-06-18T09:12:42.330Z,34.86
2023-06-18T09:15:09.452Z,34.58
2023-06-18T09:17:38.642Z,34.27
2023-06-18T09:20:07.102Z,34.10
2023-06-18T09:22:43.985Z,33.98
2023-06-18T09:25:10.752Z,33.73
2023-06-18T09:27:40.584Z,33.50
2023-06-18T09:30:07.868Z,33.24
2023-06-18T09:32:45.689Z,33.12
2023-06-18T09:35:14.304Z,33.15
2023-06-18T09:37:42.248Z,33.08
2023-06-18T09:40:15.066Z,33.10
2023-06-18T09:42:42.328Z,33.45
2023-06-18T09:45:10.139Z,33.81
2023-06-18T09:47:50.408Z,34.05
2023-06-18T09:50:17.165Z,34.10
2023-06-18T09:52:49.831Z,34.05
2023-06-18T09:55:32.410Z,34.09
2023-06-18T09:58:00.204Z,34.01
2023-06-18T10:00:27.185Z,33.85
2023-06-18T10:02:53.952Z,33.72
2023-06-18T10:05:21.445Z,33.80
2023-06-18T10:07:49.525Z,33.77
2023-06-18T10:10:16.669Z,33.62
2023-06-18T10:12:44.072Z,33.63
2023-06-18T10:15:11.893Z,33.50
2023-06-18T10:17:43.866Z,33.29
2023-06-18T10:20:14.709Z,33.10
2023-06-18T10:22:46.423Z,32.84
2023-06-18T10:25:13.221Z,32.66
2023-06-18T10:27:40.666Z,32.68
2023-06-18T10:30:08.499Z,32.78
2023-06-18T10:32:36.268Z,32.79
2023-06-18T10:35:08.040Z,32.70
2023-06-18T10:37:36.285Z,32.58
2023-06-18T10:40:05.762Z,32.59
2023-06-18T10:42:33.598Z,32.70
2023-06-18T10:45:09.841Z,32.72
2023-06-18T10:47:36.955Z,32.74
2023-06-18T10:50:03.795Z,32.76
2023-06-18T10:52:32.187Z,32.74
2023-06-18T10:55:09.396Z,32.73
2023-06-18T10:57:41.297Z,32.67
2023-06-18T11:00:19.256Z,32.57
2023-06-18T11:02:47.634Z,32.59
2023-06-18T11:05:16.093Z,32.59
2023-06-18T11:07:42.907Z,32.49
2023-06-18T11:10:10.518Z,32.52
2023-06-18T11:12:38.796Z,32.54
2023-06-18T11:15:16.739Z,32.42
2023-06-18T11:17:52.358Z,32.25
2023-06-18T11:20:21.473Z,32.11
2023-06-18T11:22:48.582Z,32.06
2023-06-18T11:25:15.875Z,32.28
2023-06-18T11:27:45.633Z,32.60
2023-06-18T11:30:14.195Z,32.76
2023-06-18T11:32:42.755Z,32.93
2023-06-18T11:35:10.427Z,33.13
2023-06-18T11:37:44.651Z,33.24
2023-06-18T11:40:11.718Z,33.12
2023-06-18T11:42:48.138Z,32.94
2023-06-18T11:45:15.091Z,32.88
2023-06-18T11:47:49.394Z,32.79
2023-06-18T11:50:17.258Z,32.67
2023-06-18T11:52:44.840Z,32.63
2023-06-18T11:55:12.010Z,32.62
2023-06-18T11:57:39.916Z,32.59
2023-06-18T12:00:10.833Z,32.69
2023-06-18T12:02:41.061Z,32.77
2023-06-18T12:05:08.630Z,32.91
2023-06-18T12:07:39.222Z,33.06
2023-06-18T12:10:08.138Z,33.20
2023-06-18T12:12:56.171Z,33.09
2023-06-18T12:15:31.476Z,32.92
2023-06-18T12:18:15.892Z,32.87
2023-06-18T12:20:42.770Z,32.77
2023-06-18T12:23:12.455Z,32.56
2023-06-18T12:25:39.271Z,32.34
2023-06-18T12:28:07.559Z,32.30
2023-06-18T12:30:39.028Z,32.17
2023-06-18T12:33:10.203Z,32.09
2023-06-18T12:35:37.313Z,32.02
2023-06-18T12:38:10.838Z,32.06
2023-06-18T12:40:56.420Z,32.07
2023-06-18T12:43:23.483Z,32.06
2023-06-18T12:45:51.289Z,32.00
2023-06-18T12:48:21.391Z,31.88
2023-06-18T12:50:48.993Z,31.85
2023-06-18T12:53:23.612Z,31.86
2023-06-18T12:55:54.750Z,32.04
2023-06-18T12:58:27.196Z,32.16
2023-06-18T13:00:56.652Z,32.20
2023-06-18T13:03:23.968Z,32.24
2023-06-18T13:05:50.976Z,32.22
2023-06-18T13:08:21.878Z,32.22
2023-06-18T13:10:50.959Z,32.12
2023-06-18T13:13:18.082Z,31.94
2023-06-18T13:15:45.853Z,31.71
2023-06-18T13:18:13.477Z,31.69
2023-06-18T13:20:40.570Z,31.69
2023-06-18T13:23:07.321Z,31.67
2023-06-18T13:25:34.227Z,31.53
2023-06-18T13:28:02.851Z,31.43
2023-06-18T13:30:31.540Z,31.43
2023-06-18T13:32:58.625Z,31.40
2023-06-18T13:35:25.843Z,31.33
2023-06-18T13:37:53.256Z,31.23
2023-06-18T13:40:20.115Z,31.17
2023-06-18T13:42:46.941Z,31.08
2023-06-18T13:45:14.580Z,30.93
2023-06-18T13:47:41.993Z,30.86
2023-06-18T13:50:09.878Z,30.83
2023-06-18T13:52:36.800Z,30.73
2023-06-18T13:55:03.907Z,30.59
2023-06-18T13:57:31.769Z,30.51
2023-06-18T13:59:58.503Z,30.43
2023-06-18T14:02:25.320Z,30.29
2023-06-18T14:04:52.187Z,30.16
2023-06-18T14:07:19.557Z,30.04
2023-06-18T14:09:46.693Z,30.00
2023-06-18T14:12:15.571Z,29.99
2023-06-18T14:14:42.884Z,29.98
2023-06-18T14:17:12.494Z,29.97
2023-06-18T14:19:40.286Z,29.93
2023-06-18T14:22:07.647Z,29.87
2023-06-18T14:24:35.242Z,29.79
2023-06-18T14:27:02.886Z,29.67
2023-06-18T14:29:33.152Z,29.54
2023-06-18T14:32:00.507Z,29.38
2023-06-18T14:34:27.301Z,29.33
2023-06-18T14:36:55.872Z,29.29
2023-06-18T14:39:23.477Z,29.28
2023-06-18T14:41:51.928Z,29.31
2023-06-18T14:44:19.045Z,29.27
2023-06-18T14:46:45.986Z,29.22
2023-06-18T14:49:12.770Z,29.17
2023-06-18T14:51:39.541Z,29.11
2023-06-18T14:54:12.933Z,29.02
2023-06-18T14:56:44.068Z,28.95
2023-06-18T14:59:10.958Z,28.83
2023-06-18T15:01:38.218Z,28.75
2023-06-18T15:04:06.719Z,28.68
2023-06-18T15:06:34.514Z,28.62
2023-06-18T15:09:02.392Z,28.55
2023-06-18T15:11:29.822Z,28.49
2023-06-18T15:13:56.726Z,28.45
2023-06-18T15:16:23.855Z,28.43
2023-06-18T15:18:52.349Z,28.37
2023-06-18T15:21:19.579Z,28.31
2023-06-18T15:23:46.540Z,28.23
2023-06-18T15:26:14.774Z,28.12
2023-06-18T15:28:42.809Z,28.00
2023-06-18T15:31:11.430Z,27.89
2023-06-18T15:33:38.781Z,27.76
2023-06-18T15:36:05.574Z,27.69
2023-06-18T15:38:32.909Z,27.62
2023-06-18T15:40:59.762Z,27.52
2023-06-18T15:43:27.466Z,27.44
2023-06-18T15:45:55.463Z,27.34
2023-06-18T15:48:22.749Z,27.27
2023-06-18T15:50:49.586Z,27.18
2023-06-18T15:53:16.744Z,27.10
2023-06-18T15:55:43.468Z,27.03
2023-06-18T15:58:10.329Z,26.97
2023-06-18T16:00:37.104Z,26.88
2023-06-18T16:03:04.075Z,26.80
2023-06-18T16:05:31.418Z,26.70
2023-06-18T16:07:58.174Z,26.61
2023-06-18T16:10:25.070Z,26.52
2023-06-18T16:12:52.044Z,26.45
2023-06-18T16:15:19.190Z,26.38
2023-06-18T16:17:46.103Z,26.30
2023-06-18T16:20:12.944Z,26.22
2023-06-18T16:22:40.023Z,26.13
2023-06-18T16:25:06.999Z,26.04
2023-06-18T16:27:33.935Z,25.93
2023-06-18T16:30:01.119Z,25.83
2023-06-18T16:32:28.657Z,25.73
2023-06-18T16:34:56.499Z,25.62
2023-06-18T16:37:23.823Z,25.49
2023-06-18T16:39:52.490Z,25.37
2023-06-18T16:42:19.229Z,25.25
2023-06-18T16:44:45.957Z,25.13
2023-06-18T16:47:12.918Z,25.00
2023-06-18T16:49:39.683Z,24.87
2023-06-18T16:52:06.969Z,24.73
2023-06-18T16:54:33.794Z,24.62
2023-06-18T16:57:00.657Z,24.51
2023-06-18T16:59:28.261Z,24.42
2023-06-18T17:01:55.142Z,24.34
2023-06-18T17:04:23.958Z,24.26
2023-06-18T17:06:50.714Z,24.16
2023-06-18T17:09:18.337Z,24.06
2023-06-18T17:11:45.740Z,23.97
2023-06-18T17:14:12.680Z,23.88
2023-06-18T17:16:40.053Z,23.78
2023-06-18T17:19:07.069Z,23.69
2023-06-18T17:21:33.813Z,23.60
2023-06-18T17:24:02.581Z,23.50
2023-06-18T17:26:29.719Z,23.43
2023-06-18T17:28:56.763Z,23.36
2023-06-18T17:31:24.393Z,23.30
2023-06-18T17:33:51.197Z,23.24
2023-06-18T17:36:18.588Z,23.20
2023-06-18T17:38:47.815Z,23.13
2023-06-18T17:41:14.707Z,23.09
2023-06-18T17:43:41.525Z,23.04
2023-06-18T17:46:14.995Z,22.98
2023-06-18T17:48:43.181Z,22.93
2023-06-18T17:51:11.110Z,22.88
2023-06-18T17:53:40.084Z,22.81
2023-06-18T17:56:07.412Z,22.74
2023-06-18T17:58:34.821Z,22.69
2023-06-18T18:01:01.578Z,22.64
2023-06-18T18:03:29.612Z,22.57
2023-06-18T18:05:56.644Z,22.54
2023-06-18T18:08:23.536Z,22.50
2023-06-18T18:10:50.400Z,22.46
2023-06-18T18:13:20.763Z,22.41
2023-06-18T18:15:47.651Z,22.37
2023-06-18T18:18:15.520Z,22.32
2023-06-18T18:20:42.183Z,22.25
2023-06-18T18:23:09.060Z,22.20
2023-06-18T18:25:35.878Z,22.12
2023-06-18T18:28:03.192Z,22.05
2023-06-18T18:30:31.644Z,21.99
2023-06-18T18:32:58.719Z,21.95
2023-06-18T18:35:26.391Z,21.91
2023-06-18T18:37:53.442Z,21.82
2023-06-18T18:40:20.430Z,21.74
2023-06-18T18:42:55.172Z,21.66
2023-06-18T18:45:24.209Z,21.55
2023-06-18T18:47:51.888Z,21.47
2023-06-18T18:50:20.837Z,21.43
2023-06-18T18:52:48.273Z,21.38
2023-06-18T18:55:15.056Z,21.32
2023-06-18T18:57:42.228Z,21.28
2023-06-18T19:00:09.527Z,21.23
2023-06-18T19:02:36.608Z,21.19
2023-06-18T19:05:03.761Z,21.17
2023-06-18T19:07:30.708Z,21.10
2023-06-18T19:09:57.661Z,21.02
2023-06-18T19:12:24.748Z,20.95
2023-06-18T19:14:51.560Z,20.90
2023-06-18T19:17:19.013Z,20.88
2023-06-18T19:19:45.853Z,20.88
2023-06-18T19:22:12.786Z,20.89
2023-06-18T19:24:39.635Z,20.86
2023-06-18T19:27:06.784Z,20.84
2023-06-18T19:29:34.108Z,20.81
2023-06-18T19:32:00.861Z,20.74
2023-06-18T19:34:27.860Z,20.69
2023-06-18T19:36:54.712Z,20.62
2023-06-18T19:39:23.363Z,20.55
2023-06-18T19:41:50.069Z,20.46
2023-06-18T19:44:17.011Z,20.37
2023-06-18T19:46:46.444Z,20.29
2023-06-18T19:49:13.311Z,20.21
2023-06-18T19:51:40.066Z,20.14
2023-06-18T19:54:06.854Z,20.07
2023-06-18T19:56:33.960Z,20.02
2023-06-18T19:59:00.813Z,19.97
2023-06-18T20:01:27.876Z,19.91
2023-06-18T20:03:54.708Z,19.85
2023-06-18T20:06:21.944Z,19.76
2023-06-18T20:08:48.595Z,19.66
2023-06-18T20:11:16.331Z,19.61
2023-06-18T20:13:43.214Z,19.54
2023-06-18T20:16:10.015Z,19.47
2023-06-18T20:18:36.884Z,19.43
2023-06-18T20:21:03.895Z,19.39
2023-06-18T20:23:33.474Z,19.34
2023-06-18T20:26:01.548Z,19.29
2023-06-18T20:28:28.427Z,19.24
2023-06-18T20:30:55.289Z,19.22
2023-06-18T20:33:22.079Z,19.18
2023-06-18T20:35:48.813Z,19.16
2023-06-18T20:38:17.376Z,19.14
2023-06-18T20:40:44.354Z,19.13
2023-06-18T20:43:12.762Z,19.12
2023-06-18T20:45:39.558Z,19.10
2023-06-18T20:48:06.583Z,19.07
2023-06-18T20:50:33.630Z,19.03
2023-06-18T20:53:00.482Z,19.00
2023-06-18T20:55:27.168Z,18.96
2023-06-18T20:57:55.156Z,18.92
2023-06-18T21:00:22.078Z,18.90
2023-06-18T21:05:02.608Z,18.85
2023-06-18T21:07:29.711Z,18.77
2023-06-18T21:09:56.835Z,18.73
2023-06-18T21:12:24.014Z,18.66
2023-06-18T21:14:50.957Z,18.60
2023-06-18T21:17:17.885Z,18.54
2023-06-18T21:19:45.366Z,18.51
2023-06-18T21:22:12.934Z,18.47
2023-06-18T21:24:40.743Z,18.43
2023-06-18T21:27:07.768Z,18.38
2023-06-18T21:29:34.805Z,18.34
2023-06-18T21:32:01.754Z,18.30
2023-06-18T21:34:28.712Z,18.25
2023-06-18T21:36:57.745Z,18.21
2023-06-18T21:39:24.652Z,18.16
2023-06-18T21:41:52.935Z,18.08
2023-06-18T21:44:20.188Z,18.04
2023-06-18T21:46:47.059Z,17.98
2023-06-18T21:49:14.131Z,17.92
2023-06-18T21:51:41.688Z,17.89
2023-06-18T21:54:08.741Z,17.86
2023-06-18T21:56:35.548Z,17.81
2023-06-18T21:59:02.527Z,17.77
2023-06-18T22:01:29.881Z,17.74
2023-06-18T22:03:57.700Z,17.71
2023-06-18T22:06:24.647Z,17.68
2023-06-18T22:08:52.632Z,17.67
2023-06-18T22:11:20.873Z,17.63
2023-06-18T22:13:48.027Z,17.58
2023-06-18T22:16:15.346Z,17.55
2023-06-18T22:18:42.423Z,17.50
2023-06-18T22:21:10.934Z,17.45
2023-06-18T22:23:39.169Z,17.41
2023-06-18T22:26:06.478Z,17.39
2023-06-18T22:28:33.663Z,17.38
2023-06-18T22:31:00.579Z,17.34
2023-06-18T22:33:31.026Z,17.30
2023-06-18T22:35:58.076Z,17.26
2023-06-18T22:38:26.854Z,17.24
2023-06-18T22:40:55.272Z,17.21
2023-06-18T22:43:23.929Z,17.18
2023-06-18T22:45:50.899Z,17.18
2023-06-18T22:48:17.879Z,17.14
2023-06-18T22:50:44.800Z,17.09
2023-06-18T22:53:12.368Z,17.05
2023-06-18T22:55:39.607Z,17.00
2023-06-18T22:58:07.595Z,16.94
2023-06-18T23:00:35.723Z,16.90
2023-06-18T23:03:03.181Z,16.86
2023-06-18T23:05:30.639Z,16.84
2023-06-18T23:07:57.483Z,16.80
2023-06-18T23:10:24.925Z,16.77
2023-06-18T23:12:52.658Z,16.75
2023-06-18T23:15:19.561Z,16.73
2023-06-18T23:17:46.837Z,16.70
2023-06-18T23:20:14.169Z,16.67
2023-06-18T23:22:43.153Z,16.64
2023-06-18T23:25:10.405Z,16.64
2023-06-18T23:27:38.775Z,16.64
2023-06-18T23:30:06.756Z,16.65
2023-06-18T23:32:35.769Z,16.66
2023-06-18T23:35:02.856Z,16.64
2023-06-18T23:37:29.855Z,16.63
2023-06-18T23:39:56.794Z,16.61
2023-06-18T23:42:23.645Z,16.60
2023-06-18T23:44:51.662Z,16.58
2023-06-18T23:47:18.563Z,16.57
2023-06-18T23:49:46.026Z,16.51
2023-06-18T23:52:13.076Z,16.48
2023-06-18T23:54:40.352Z,16.47
2023-06-18T23:57:08.314Z,16.44
2023-06-18T23:59:35.264Z,16.42
